createdAt,value
2022-11-18T00:00:18.109Z,17.5
2022-11-18T00:01:35.214Z,17.4
2022-11-18T00:02:52.319Z,19
2022-11-18T00:04:09.423Z,17.7
2022-11-18T00:05:26.528Z,20.1
2022-11-18T00:06:42.649Z,16.8
2022-11-18T00:07:59.754Z,19
2022-11-18T00:09:16.859Z,18.6
2022-11-18T00:10:33.963Z,18.1
2022-11-18T00:11:51.068Z,19.5
2022-11-18T00:13:08.173Z,17.8
2022-11-18T00:14:25.278Z,19.3
2022-11-18T00:15:41.404Z,17.5
2022-11-18T00:16:57.524Z,19.6
2022-11-18T00:18:14.629Z,19.5
2022-11-18T00:19:31.734Z,18
2022-11-18T00:20:47.860Z,18.8
2022-11-18T00:22:03.981Z,22.3
2022-11-18T00:23:21.086Z,20.9
2022-11-18T00:24:38.191Z,20.1
2022-11-18T00:25:55.295Z,19.7
2022-11-18T00:27:12.400Z,20.2
2022-11-18T00:28:29.505Z,22.7
2022-11-18T00:29:46.609Z,20.6
2022-11-18T00:32:20.819Z,21.5
2022-11-18T00:33:37.922Z,21.6
2022-11-18T00:34:55.027Z,24.3
2022-11-18T00:36:12.132Z,23.2
2022-11-18T00:37:29.236Z,25.8
2022-11-18T00:38:45.357Z,24.9
2022-11-18T00:40:02.462Z,27.5
2022-11-18T00:41:19.567Z,27
2022-11-18T00:42:36.672Z,26.9
2022-11-18T00:43:53.777Z,29.9
2022-11-18T00:45:10.882Z,31.4
2022-11-18T00:46:27.986Z,29.2
2022-11-18T00:47:45.091Z,29.2
2022-11-18T00:49:01.217Z,28.8
2022-11-18T00:50:17.338Z,30.6
2022-11-18T00:51:33.464Z,27.1
2022-11-18T00:52:49.585Z,30.9
2022-11-18T00:54:06.690Z,27.1
2022-11-18T00:55:23.795Z,24.6
2022-11-18T00:56:40.900Z,24.6
2022-11-18T00:57:58.004Z,25.7
2022-11-18T00:59:15.109Z,23.9
2022-11-18T01:00:32.214Z,22.8
2022-11-18T01:01:49.319Z,27.6
2022-11-18T01:03:06.424Z,23.7
2022-11-18T01:04:23.529Z,19.4
2022-11-18T01:05:40.634Z,26.2
2022-11-18T01:06:57.739Z,26.8
2022-11-18T01:08:14.843Z,24.1
2022-11-18T01:09:30.964Z,26.1
2022-11-18T01:10:48.069Z,27.1
2022-11-18T01:12:05.174Z,31.5
2022-11-18T01:13:22.279Z,31.2
2022-11-18T01:14:39.384Z,28.7
2022-11-18T01:15:56.489Z,29.1
2022-11-18T01:17:13.594Z,36.9
2022-11-18T01:18:29.720Z,29.7
2022-11-18T01:19:46.825Z,31.4
2022-11-18T01:21:02.951Z,29.5
2022-11-18T01:22:19.072Z,23.1
2022-11-18T01:23:36.177Z,27.7
2022-11-18T01:24:53.282Z,30.4
2022-11-18T01:26:10.387Z,26
2022-11-18T01:27:27.491Z,28.7
2022-11-18T01:28:44.596Z,25.2
2022-11-18T01:30:01.701Z,25.6
2022-11-18T01:31:18.806Z,24
2022-11-18T01:32:35.911Z,28.5
2022-11-18T01:33:53.015Z,27
2022-11-18T01:35:10.120Z,38.3
2022-11-18T01:36:27.225Z,39.2
2022-11-18T01:37:44.330Z,40.3
2022-11-18T01:39:00.451Z,39.3
2022-11-18T01:40:17.556Z,39.1
2022-11-18T01:41:34.660Z,37.3
2022-11-18T01:42:51.765Z,39.8
2022-11-18T01:44:08.870Z,33.4
2022-11-18T01:45:25.975Z,32.1
2022-11-18T01:46:43.080Z,32.4
2022-11-18T01:47:59.206Z,40.1
2022-11-18T01:49:15.327Z,42.5
2022-11-18T01:50:32.432Z,35.3
2022-11-18T01:51:49.537Z,38
2022-11-18T01:53:05.663Z,40.6
2022-11-18T01:54:21.784Z,34.1
2022-11-18T01:55:38.889Z,44.9
2022-11-18T01:56:55.994Z,50.6
2022-11-18T01:58:13.099Z,48.9
2022-11-18T01:59:30.203Z,59.4
2022-11-18T02:00:47.308Z,62.6
2022-11-18T02:02:04.413Z,60.7
2022-11-18T02:03:21.518Z,73.2
2022-11-18T02:04:38.623Z,89.1
2022-11-18T02:05:55.727Z,67.3
2022-11-18T02:07:12.832Z,62.2
2022-11-18T02:08:29.937Z,78.2
2022-11-18T02:09:47.042Z,84.7
2022-11-18T02:11:03.163Z,84.1
2022-11-18T02:12:20.268Z,43.5
2022-11-18T02:13:37.372Z,38.3
2022-11-18T02:14:54.478Z,32.5
2022-11-18T02:16:11.582Z,26
2022-11-18T02:17:28.687Z,26.5
2022-11-18T02:18:45.792Z,31.4
2022-11-18T02:20:01.918Z,26.9
2022-11-18T02:21:18.039Z,28.3
2022-11-18T02:22:34.165Z,25.8
2022-11-18T02:23:50.286Z,33.5
2022-11-18T02:25:07.391Z,32.9
2022-11-18T02:26:24.496Z,24.1
2022-11-18T02:27:41.600Z,22.8
2022-11-18T02:28:58.705Z,24
2022-11-18T02:30:15.810Z,22.4
2022-11-18T02:31:32.915Z,25.8
2022-11-18T02:32:50.020Z,25
2022-11-18T02:34:07.125Z,22.5
2022-11-18T02:35:24.229Z,20.4
2022-11-18T02:36:41.334Z,18.7
2022-11-18T02:37:58.439Z,20.7
2022-11-18T02:39:15.544Z,23.2
2022-11-18T02:40:31.665Z,30.5
2022-11-18T02:41:48.770Z,31.1
2022-11-18T02:43:05.875Z,36
2022-11-18T02:44:22.979Z,45.4
2022-11-18T02:45:40.084Z,62.6
2022-11-18T02:46:57.189Z,64.1
2022-11-18T02:48:14.294Z,63.9
2022-11-18T02:49:30.420Z,71.3
2022-11-18T02:50:46.541Z,72.4
2022-11-18T02:52:03.646Z,73.2
2022-11-18T02:53:19.772Z,60.5
2022-11-18T02:54:35.893Z,56.8
2022-11-18T02:55:52.998Z,61.4
2022-11-18T02:57:10.103Z,69.6
2022-11-18T02:58:27.208Z,56.4
2022-11-18T02:59:44.313Z,49.2
2022-11-18T03:01:01.418Z,62.9
2022-11-18T03:02:18.522Z,70.5
2022-11-18T03:03:35.627Z,68.6
2022-11-18T03:04:52.732Z,69.3
2022-11-18T03:06:09.837Z,62.9
2022-11-18T03:07:26.942Z,70.9
2022-11-18T03:08:44.047Z,64.4
2022-11-18T03:10:01.152Z,67.8
2022-11-18T03:11:17.273Z,52.4
2022-11-18T03:12:34.378Z,57.2
2022-11-18T03:13:51.482Z,48.4
2022-11-18T03:15:08.587Z,61.4
2022-11-18T03:16:25.692Z,53.9
2022-11-18T03:17:42.797Z,62.7
2022-11-18T03:18:59.902Z,53.2
2022-11-18T03:20:16.028Z,61.7
2022-11-18T03:21:32.149Z,64
2022-11-18T03:22:49.255Z,68.8
2022-11-18T03:24:05.381Z,64
2022-11-18T03:25:21.502Z,72.7
2022-11-18T03:26:38.607Z,67.2
2022-11-18T03:27:55.710Z,68.3
2022-11-18T03:29:12.815Z,69.7
2022-11-18T03:30:29.920Z,60.7
2022-11-18T03:31:47.025Z,68.5
2022-11-18T03:33:04.129Z,69.5
2022-11-18T03:34:21.235Z,65.7
2022-11-18T03:35:38.339Z,70.4
2022-11-18T03:36:55.444Z,63.7
2022-11-18T03:38:12.549Z,60.8
2022-11-18T03:39:29.654Z,69.7
2022-11-18T03:40:46.759Z,68.4
2022-11-18T03:42:02.880Z,52.8
2022-11-18T03:43:19.985Z,55.9
2022-11-18T03:44:37.090Z,63.6
2022-11-18T03:45:54.195Z,55.3
2022-11-18T03:47:11.300Z,63.9
2022-11-18T03:48:28.404Z,62.3
2022-11-18T03:49:45.509Z,57.2
2022-11-18T03:51:01.635Z,56.9
2022-11-18T03:52:17.756Z,56.8
2022-11-18T03:53:34.861Z,57.3
2022-11-18T03:54:50.988Z,55.3
2022-11-18T03:56:07.108Z,57.4
2022-11-18T03:57:24.213Z,54.7
2022-11-18T03:58:41.318Z,58.5
2022-11-18T03:59:58.423Z,46.4
2022-11-18T04:01:14.544Z,41.9
2022-11-18T04:02:31.650Z,43.8
2022-11-18T04:03:48.755Z,39.2
2022-11-18T04:05:05.860Z,41.3
2022-11-18T04:06:22.965Z,50.9
2022-11-18T04:07:40.070Z,46.5
2022-11-18T04:08:57.175Z,41.2
2022-11-18T04:10:14.279Z,40.5
2022-11-18T04:11:31.384Z,43.9
2022-11-18T04:12:48.490Z,44.8
2022-11-18T04:14:05.594Z,42.7
2022-11-18T04:15:22.699Z,51.7
2022-11-18T04:16:39.804Z,43.6
2022-11-18T04:17:55.925Z,45.8
2022-11-18T04:19:13.030Z,40.4
2022-11-18T04:20:30.135Z,38.4
2022-11-18T04:21:46.261Z,30
2022-11-18T04:23:02.382Z,35.2
2022-11-18T04:24:19.487Z,43.9
2022-11-18T04:25:36.591Z,42.2
2022-11-18T04:26:52.717Z,42.1
2022-11-18T04:28:08.838Z,46.5
2022-11-18T04:29:25.944Z,43.7
2022-11-18T04:30:43.048Z,45.9
2022-11-18T04:32:00.153Z,47.6
2022-11-18T04:33:17.258Z,41
2022-11-18T04:34:34.363Z,38.8
2022-11-18T04:35:51.468Z,41.4
2022-11-18T04:37:08.573Z,35.6
2022-11-18T04:38:25.677Z,42.8
2022-11-18T04:39:42.783Z,39.3
2022-11-18T04:40:59.888Z,35.5
2022-11-18T04:42:16.992Z,41.3
2022-11-18T04:43:34.097Z,35.7
2022-11-18T04:44:50.218Z,35.2
2022-11-18T04:46:07.323Z,37.3
2022-11-18T04:47:24.428Z,37.7
2022-11-18T04:48:41.533Z,35.5
2022-11-18T04:49:58.638Z,35.7
2022-11-18T04:51:15.743Z,38.2
2022-11-18T04:52:32.847Z,44
2022-11-18T04:53:48.974Z,39.5
2022-11-18T04:55:05.094Z,37.3
2022-11-18T04:56:21.221Z,45.3
2022-11-18T04:57:37.342Z,46.2
2022-11-18T04:58:54.446Z,48.6
2022-11-18T05:00:11.551Z,45.2
2022-11-18T05:01:28.656Z,48.5
2022-11-18T05:02:45.761Z,44.7
2022-11-18T05:04:02.866Z,48.2
2022-11-18T05:05:19.971Z,35.8
2022-11-18T05:06:37.076Z,40.3
2022-11-18T05:07:54.181Z,41.5
2022-11-18T05:09:11.285Z,46.1
2022-11-18T05:10:28.390Z,37.5
2022-11-18T05:11:45.495Z,42.2
2022-11-18T05:13:02.600Z,38.9
2022-11-18T05:14:18.721Z,44.5
2022-11-18T05:15:35.826Z,55.7
2022-11-18T05:16:52.931Z,56.9
2022-11-18T05:18:10.036Z,58.3
2022-11-18T05:19:27.141Z,54.7
2022-11-18T05:20:44.245Z,53.8
2022-11-18T05:22:01.350Z,41.3
2022-11-18T05:23:17.477Z,53.9
2022-11-18T05:24:33.597Z,59
2022-11-18T05:25:50.702Z,45.7
2022-11-18T05:27:06.828Z,43.9
2022-11-18T05:28:22.949Z,49
2022-11-18T05:29:40.054Z,68.7
2022-11-18T05:30:57.159Z,44.3
2022-11-18T05:32:14.264Z,43.6
2022-11-18T05:33:31.369Z,36.8
2022-11-18T05:34:48.474Z,42.9
2022-11-18T05:36:05.579Z,41
2022-11-18T05:37:22.683Z,40.8
2022-11-18T05:38:39.788Z,39.3
2022-11-18T05:39:56.893Z,43
2022-11-18T05:41:13.998Z,40.5
2022-11-18T05:42:31.103Z,38.8
2022-11-18T05:43:48.208Z,41.5
2022-11-18T05:45:04.329Z,41.4
2022-11-18T05:46:21.434Z,36.2
2022-11-18T05:47:38.538Z,32.4
2022-11-18T05:48:55.643Z,36.1
2022-11-18T05:50:12.748Z,34
2022-11-18T05:51:29.853Z,40.6
2022-11-18T05:52:46.958Z,42
2022-11-18T05:54:03.084Z,39
2022-11-18T05:55:19.205Z,39.4
2022-11-18T05:56:36.310Z,46.1
2022-11-18T05:57:52.436Z,40.2
2022-11-18T05:59:08.557Z,37.1
2022-11-18T06:00:25.662Z,41.4
2022-11-18T06:01:42.767Z,41.2
2022-11-18T06:02:59.872Z,35.2
2022-11-18T06:04:16.976Z,43
2022-11-18T06:05:34.081Z,35
2022-11-18T06:06:51.186Z,34.9
2022-11-18T06:08:08.291Z,28.2
2022-11-18T06:09:25.396Z,29.1
2022-11-18T06:10:42.501Z,28.5
2022-11-18T06:11:59.606Z,30.8
2022-11-18T06:13:16.710Z,30.5
2022-11-18T06:14:33.815Z,27.7
2022-11-18T06:15:49.936Z,28.6
2022-11-18T06:17:07.041Z,31.5
2022-11-18T06:18:24.146Z,30.2
2022-11-18T06:19:41.251Z,34.7
2022-11-18T06:20:58.355Z,35.4
2022-11-18T06:22:15.461Z,38.8
2022-11-18T06:23:32.565Z,33.5
2022-11-18T06:24:48.690Z,42.1
2022-11-18T06:26:04.810Z,38.8
2022-11-18T06:27:21.915Z,42.4
2022-11-18T06:28:38.041Z,46.3
2022-11-18T06:29:54.162Z,44.1
2022-11-18T06:31:11.267Z,43.9
2022-11-18T06:32:28.372Z,46.6
2022-11-18T06:33:45.477Z,37.7
2022-11-18T06:35:02.582Z,34.7
2022-11-18T06:36:19.686Z,32
2022-11-18T06:37:36.792Z,32.2
2022-11-18T06:38:53.896Z,30.9
2022-11-18T06:40:11.001Z,31.3
2022-11-18T06:41:28.106Z,36.5
2022-11-18T06:42:45.211Z,34.7
2022-11-18T06:44:02.315Z,31.5
2022-11-18T06:45:19.420Z,30.3
2022-11-18T06:46:35.541Z,29.1
2022-11-18T06:47:52.646Z,35
2022-11-18T06:49:09.751Z,39.8
2022-11-18T06:50:26.856Z,32.8
2022-11-18T06:51:43.962Z,33.1
2022-11-18T06:53:01.066Z,33.3
2022-11-18T06:54:18.171Z,33.8
2022-11-18T06:55:34.297Z,40
2022-11-18T06:56:50.418Z,39
2022-11-18T06:58:07.523Z,32.1
2022-11-18T06:59:24.628Z,32.8
2022-11-18T07:00:40.754Z,31.8
2022-11-18T07:01:56.875Z,31
2022-11-18T07:03:13.980Z,30.7
2022-11-18T07:04:31.085Z,28.4
2022-11-18T07:05:48.190Z,31.6
2022-11-18T07:07:05.294Z,34.7
2022-11-18T07:08:22.399Z,36.6
2022-11-18T07:09:39.504Z,30.2
2022-11-18T07:10:56.609Z,41.5
2022-11-18T07:12:13.713Z,46.4
2022-11-18T07:13:30.818Z,41.5
2022-11-18T07:14:47.924Z,37.1
2022-11-18T07:16:05.029Z,33.5
2022-11-18T07:17:22.134Z,38
2022-11-18T07:18:38.255Z,36.3
2022-11-18T07:19:55.359Z,36.1
2022-11-18T07:21:12.464Z,29.6
2022-11-18T07:22:29.569Z,31.5
2022-11-18T07:23:46.674Z,33.9
2022-11-18T07:25:03.778Z,29.8
2022-11-18T07:26:20.884Z,31.9
2022-11-18T07:27:37.010Z,27
2022-11-18T07:28:53.131Z,33.5
2022-11-18T07:30:09.257Z,30.4
2022-11-18T07:31:25.378Z,34.1
2022-11-18T07:32:42.483Z,33.4
2022-11-18T07:33:59.589Z,28.2
2022-11-18T07:35:16.693Z,28.8
2022-11-18T07:36:33.798Z,25.4
2022-11-18T07:37:50.903Z,25.7
2022-11-18T07:39:08.007Z,27.1
2022-11-18T07:40:25.112Z,28
2022-11-18T07:41:42.217Z,33.2
2022-11-18T07:42:59.322Z,27.5
2022-11-18T07:44:16.427Z,30.9
2022-11-18T07:45:33.531Z,25.3
2022-11-18T07:46:50.636Z,31
2022-11-18T07:48:06.757Z,28.7
2022-11-18T07:49:23.861Z,59.4
2022-11-18T07:50:40.966Z,77.1
2022-11-18T07:51:58.071Z,56.9
2022-11-18T07:53:15.176Z,43.3
2022-11-18T07:54:32.280Z,33.8
2022-11-18T07:55:49.385Z,32.2
2022-11-18T07:57:05.511Z,40.2
2022-11-18T07:58:21.632Z,32
2022-11-18T07:59:38.737Z,29.4
2022-11-18T08:00:54.863Z,29.5
2022-11-18T08:02:10.983Z,25.3
2022-11-18T08:03:28.088Z,30.9
2022-11-18T08:04:45.193Z,31
2022-11-18T08:06:02.298Z,26.6
2022-11-18T08:07:19.402Z,29.2
2022-11-18T08:08:36.507Z,28.5
2022-11-18T08:09:53.612Z,41.7
2022-11-18T08:11:10.717Z,35.6
2022-11-18T08:12:27.821Z,29.2
2022-11-18T08:13:44.926Z,24.4
2022-11-18T08:15:02.030Z,25.2
2022-11-18T08:16:19.135Z,24.7
2022-11-18T08:17:36.240Z,26.8
2022-11-18T08:18:52.361Z,26.8
2022-11-18T08:20:09.466Z,25.3
2022-11-18T08:21:26.570Z,28.5
2022-11-18T08:22:43.675Z,24.5
2022-11-18T08:24:00.779Z,23.8
2022-11-18T08:25:17.884Z,23.8
2022-11-18T08:26:34.989Z,24.3
2022-11-18T08:27:52.093Z,24.4
2022-11-18T08:29:09.198Z,21.6
2022-11-18T08:30:26.303Z,24.6
2022-11-18T08:31:43.407Z,23.6
2022-11-18T08:33:00.512Z,26.7
2022-11-18T08:34:17.617Z,26.5
2022-11-18T08:35:33.737Z,24.1
2022-11-18T08:36:50.842Z,21.9
2022-11-18T08:38:07.947Z,27
2022-11-18T08:39:24.073Z,23.1
2022-11-18T08:40:40.193Z,24.7
2022-11-18T08:41:57.298Z,22.6
2022-11-18T08:43:14.402Z,18.4
2022-11-18T08:44:30.528Z,20.1
2022-11-18T08:45:46.649Z,22.5
2022-11-18T08:47:03.754Z,21.5
2022-11-18T08:48:20.859Z,21.7
2022-11-18T08:49:37.963Z,22.9
2022-11-18T08:50:55.068Z,23.3
2022-11-18T08:52:12.173Z,22.4
2022-11-18T08:53:29.277Z,20.9
2022-11-18T08:54:46.382Z,20.5
2022-11-18T08:56:03.487Z,19
2022-11-18T08:57:20.592Z,22.7
2022-11-18T08:58:37.696Z,21
2022-11-18T08:59:54.801Z,19.4
2022-11-18T09:01:11.906Z,18.7
2022-11-18T09:02:28.026Z,19.1
2022-11-18T09:03:45.131Z,21.2
2022-11-18T09:05:02.236Z,21
2022-11-18T09:06:19.340Z,19.7
2022-11-18T09:07:36.445Z,20.1
2022-11-18T09:08:53.550Z,19.5
2022-11-18T09:10:10.655Z,21.2
2022-11-18T09:11:26.781Z,21.4
2022-11-18T09:12:42.902Z,21.8
2022-11-18T09:13:59.027Z,23.4
2022-11-18T09:15:15.148Z,21.8
2022-11-18T09:16:32.253Z,21.6
2022-11-18T09:17:49.358Z,22.5
2022-11-18T09:19:06.462Z,22.4
2022-11-18T09:20:23.567Z,21.7
2022-11-18T09:21:40.672Z,20.2
2022-11-18T09:22:57.776Z,19.8
2022-11-18T09:24:14.881Z,23.2
2022-11-18T09:25:31.986Z,21.8
2022-11-18T09:26:49.090Z,17.5
2022-11-18T09:28:06.195Z,20.8
2022-11-18T09:29:23.299Z,22.7
2022-11-18T09:30:40.404Z,18.5
2022-11-18T09:31:56.525Z,20.2
2022-11-18T09:33:13.629Z,19.1
2022-11-18T09:34:30.734Z,18
2022-11-18T09:35:47.838Z,18.9
2022-11-18T09:37:04.943Z,17.3
2022-11-18T09:38:22.047Z,17.9
2022-11-18T09:39:39.152Z,18.5
2022-11-18T09:40:55.277Z,17.5
2022-11-18T09:42:11.398Z,19.4
2022-11-18T09:43:27.524Z,17.6
2022-11-18T09:44:43.645Z,17.4
2022-11-18T09:46:00.749Z,16
2022-11-18T09:47:17.854Z,18.7
2022-11-18T09:48:34.958Z,17.2
2022-11-18T09:49:52.063Z,16.4
2022-11-18T09:51:09.167Z,16.9
2022-11-18T09:52:26.272Z,18.2
2022-11-18T09:53:43.376Z,17.1
2022-11-18T09:55:00.481Z,17.5
2022-11-18T09:56:17.585Z,18.9
2022-11-18T09:57:34.689Z,17.9
2022-11-18T09:58:51.794Z,16.3
2022-11-18T10:00:08.899Z,17.4
2022-11-18T10:01:25.019Z,14.7
2022-11-18T10:02:42.124Z,16.2
2022-11-18T10:03:59.228Z,16.1
2022-11-18T10:05:16.333Z,16
2022-11-18T10:06:33.437Z,16
2022-11-18T10:07:50.542Z,14.4
2022-11-18T10:09:07.646Z,14.9
2022-11-18T10:10:23.772Z,15.3
2022-11-18T10:11:39.892Z,14.1
2022-11-18T10:12:56.018Z,14.1
2022-11-18T10:14:12.139Z,14.5
2022-11-18T10:15:29.243Z,14.4
2022-11-18T10:16:46.348Z,15.4
2022-11-18T10:18:03.453Z,17.3
2022-11-18T10:19:20.557Z,13.2
2022-11-18T10:20:37.662Z,15.6
2022-11-18T10:21:54.766Z,15.1
2022-11-18T10:23:11.871Z,12.5
2022-11-18T10:24:28.975Z,16.6
2022-11-18T10:25:46.080Z,15.4
2022-11-18T10:27:03.184Z,14
2022-11-18T10:28:20.290Z,17.2
2022-11-18T10:29:37.394Z,13.7
2022-11-18T10:30:53.515Z,15.3
2022-11-18T10:32:10.619Z,15.6
2022-11-18T10:33:27.723Z,15
2022-11-18T10:34:44.828Z,13.2
2022-11-18T10:36:01.932Z,14.1
2022-11-18T10:37:19.037Z,13.7
2022-11-18T10:38:36.141Z,12.8
2022-11-18T10:39:52.267Z,15.6
2022-11-18T10:41:08.387Z,13.2
2022-11-18T10:42:24.513Z,12.5
2022-11-18T10:43:40.633Z,14.5
2022-11-18T10:44:57.738Z,14
2022-11-18T10:46:14.843Z,11.7
2022-11-18T10:47:31.947Z,13.8
2022-11-18T10:48:49.051Z,11
2022-11-18T10:50:06.156Z,11.5
2022-11-18T10:51:23.260Z,12.7
2022-11-18T10:52:40.364Z,12
2022-11-18T10:53:57.469Z,12.1
2022-11-18T10:55:14.573Z,12.8
2022-11-18T10:56:31.678Z,11.5
2022-11-18T10:57:48.782Z,11.5
2022-11-18T10:59:05.886Z,12.1
2022-11-18T11:00:22.007Z,11.9
2022-11-18T11:01:39.111Z,11.7
2022-11-18T11:02:56.216Z,12.4
2022-11-18T11:04:13.320Z,11.8
2022-11-18T11:05:30.425Z,12.9
2022-11-18T11:06:47.529Z,11.8
2022-11-18T11:08:04.634Z,13
2022-11-18T11:09:20.760Z,12
2022-11-18T11:10:36.880Z,12.5
2022-11-18T11:11:53.985Z,12.2
2022-11-18T11:13:10.110Z,13.4
2022-11-18T11:14:26.231Z,11.7
2022-11-18T11:15:43.336Z,12.3
2022-11-18T11:17:00.440Z,12
2022-11-18T11:18:17.544Z,12.3
2022-11-18T11:19:34.649Z,11.8
2022-11-18T11:20:51.753Z,11.6
2022-11-18T11:22:08.858Z,11.8
2022-11-18T11:23:25.963Z,11.4
2022-11-18T11:24:43.067Z,11.8
2022-11-18T11:26:00.172Z,11.1
2022-11-18T11:27:17.276Z,11.3
2022-11-18T11:28:34.381Z,12.8
2022-11-18T11:29:51.486Z,12.4
2022-11-18T11:31:07.606Z,13
2022-11-18T11:32:24.712Z,10.9
2022-11-18T11:33:41.817Z,13.8
2022-11-18T11:34:58.921Z,14.1
2022-11-18T11:36:16.025Z,11.7
2022-11-18T11:37:33.130Z,13.9
2022-11-18T11:38:50.234Z,12.4
2022-11-18T11:40:06.360Z,11.9
2022-11-18T11:41:22.481Z,14.8
2022-11-18T11:42:38.606Z,12.4
2022-11-18T11:43:54.727Z,13.3
2022-11-18T11:45:11.832Z,13.9
2022-11-18T11:46:28.936Z,12.7
2022-11-18T11:47:46.041Z,13
2022-11-18T11:49:03.146Z,14.7
2022-11-18T11:50:20.250Z,11.9
2022-11-18T11:51:37.355Z,14.7
2022-11-18T11:52:54.459Z,14.5
2022-11-18T11:54:11.564Z,14.4
2022-11-18T11:55:28.668Z,13.7
2022-11-18T11:56:45.773Z,13.4
2022-11-18T11:58:02.877Z,15.1
2022-11-18T11:59:19.982Z,14.3
2022-11-18T12:00:36.102Z,13.1
2022-11-18T12:01:53.207Z,14.2
2022-11-18T12:03:10.311Z,14.1
2022-11-18T12:04:27.416Z,13.4
2022-11-18T12:05:44.520Z,14.2
2022-11-18T12:07:01.625Z,12.2
2022-11-18T12:08:18.729Z,13
2022-11-18T12:09:34.855Z,13.4
2022-11-18T12:10:50.975Z,12.8
2022-11-18T12:12:07.101Z,14
2022-11-18T12:13:23.222Z,14.4
2022-11-18T12:14:40.326Z,12.7
2022-11-18T12:15:57.431Z,14.2
2022-11-18T12:17:14.535Z,14
2022-11-18T12:18:31.640Z,14.2
2022-11-18T12:19:48.744Z,15
2022-11-18T12:21:05.848Z,13.6
2022-11-18T12:22:22.953Z,13.5
2022-11-18T12:23:40.057Z,13.1
2022-11-18T12:24:57.161Z,13.6
2022-11-18T12:26:14.266Z,13.9
2022-11-18T12:27:31.370Z,13.9
2022-11-18T12:28:48.475Z,13.8
2022-11-18T12:30:04.595Z,15
2022-11-18T12:31:21.700Z,14.4
2022-11-18T12:32:38.804Z,14.4
2022-11-18T12:33:55.908Z,14.4
2022-11-18T12:35:13.013Z,13.8
2022-11-18T12:36:29.133Z,14.4
2022-11-18T12:37:46.237Z,13.8
2022-11-18T12:39:02.363Z,15.2
2022-11-18T12:40:18.484Z,13.3
2022-11-18T12:41:34.609Z,12.5
2022-11-18T12:42:50.730Z,14.3
2022-11-18T12:44:07.835Z,13.4
2022-11-18T12:45:24.939Z,12.3
2022-11-18T12:46:42.043Z,14.4
2022-11-18T12:47:59.148Z,12.8
2022-11-18T12:49:16.252Z,12.5
2022-11-18T12:50:33.356Z,13.6
2022-11-18T12:51:50.461Z,14.5
2022-11-18T12:53:07.565Z,12.8
2022-11-18T12:54:24.670Z,14.1
2022-11-18T12:55:41.774Z,12.7
2022-11-18T12:56:58.879Z,12
2022-11-18T12:58:15.983Z,14.5
2022-11-18T12:59:32.104Z,14
2022-11-18T13:00:49.208Z,14.8
2022-11-18T13:02:06.313Z,14.8
2022-11-18T13:03:23.417Z,17
2022-11-18T13:04:40.521Z,12.4
2022-11-18T13:05:57.626Z,14.2
2022-11-18T13:07:14.730Z,16.1
2022-11-18T13:08:30.856Z,14
2022-11-18T13:09:46.977Z,14.4
2022-11-18T13:11:04.081Z,13.8
2022-11-18T13:12:21.185Z,12.5
2022-11-18T13:13:37.311Z,12.3
2022-11-18T13:14:53.432Z,13.4
2022-11-18T13:16:10.536Z,13.7
2022-11-18T13:17:27.641Z,13.9
2022-11-18T13:18:44.745Z,13.6
2022-11-18T13:20:01.849Z,12.7
2022-11-18T13:21:18.954Z,12.5
2022-11-18T13:22:36.060Z,16.5
2022-11-18T13:23:53.164Z,14
2022-11-18T13:25:10.269Z,13.2
2022-11-18T13:26:27.373Z,12.8
2022-11-18T13:27:44.478Z,13.2
2022-11-18T13:29:01.582Z,13.4
2022-11-18T13:30:18.686Z,13.5
2022-11-18T13:31:34.807Z,13.5
2022-11-18T13:32:51.912Z,12.2
2022-11-18T13:34:09.016Z,13
2022-11-18T13:35:26.121Z,10.9
2022-11-18T13:36:43.225Z,11.6
2022-11-18T13:38:00.329Z,13
2022-11-18T13:39:17.434Z,12.2
2022-11-18T13:40:33.559Z,10.7
2022-11-18T13:41:49.680Z,13.4
2022-11-18T13:43:06.784Z,12.1
2022-11-18T13:44:22.910Z,12.6
2022-11-18T13:45:39.031Z,13.1
2022-11-18T13:46:56.135Z,15.7
2022-11-18T13:48:13.240Z,14.4
2022-11-18T13:49:30.344Z,12.5
2022-11-18T13:50:47.448Z,16.3
2022-11-18T13:52:04.553Z,12.9
2022-11-18T13:53:21.657Z,17.6
2022-11-18T13:54:38.762Z,14.9
2022-11-18T13:55:55.866Z,13.6
2022-11-18T13:57:12.970Z,14
2022-11-18T13:58:30.075Z,14.4
2022-11-18T13:59:47.181Z,14
2022-11-18T14:01:04.285Z,13.3
2022-11-18T14:02:20.406Z,15.2
2022-11-18T14:03:37.510Z,13.5
2022-11-18T14:04:54.615Z,15.2
2022-11-18T14:06:11.719Z,16.2
2022-11-18T14:07:28.824Z,15.6
2022-11-18T14:08:45.928Z,14.7
2022-11-18T14:10:03.033Z,14.9
2022-11-18T14:11:19.159Z,14.8
2022-11-18T14:12:35.280Z,14.3
2022-11-18T14:13:51.406Z,13.4
2022-11-18T14:15:07.526Z,16.3
2022-11-18T14:16:24.631Z,14.3
2022-11-18T14:17:41.736Z,16.1
2022-11-18T14:18:58.840Z,13.7
2022-11-18T14:20:15.945Z,14.1
2022-11-18T14:21:33.050Z,14.2
2022-11-18T14:22:50.155Z,15.7
2022-11-18T14:24:07.259Z,14.2
2022-11-18T14:25:24.364Z,13.8
2022-11-18T14:26:41.469Z,14
2022-11-18T14:27:58.575Z,14.5
2022-11-18T14:29:15.679Z,15.6
2022-11-18T14:30:32.784Z,15
2022-11-18T14:31:48.905Z,15.1
2022-11-18T14:33:06.009Z,18.6
2022-11-18T14:34:23.114Z,17.5
2022-11-18T14:35:40.219Z,16.5
2022-11-18T14:36:57.324Z,17.8
2022-11-18T14:38:14.428Z,15.6
2022-11-18T14:39:31.533Z,16.7
2022-11-18T14:40:47.659Z,16.7
2022-11-18T14:42:03.780Z,15.4
2022-11-18T14:43:19.906Z,15.4
2022-11-18T14:44:36.027Z,15.5
2022-11-18T14:45:53.132Z,15.8
2022-11-18T14:47:10.237Z,15.5
2022-11-18T14:48:27.341Z,15.7
2022-11-18T14:49:44.446Z,16.1
2022-11-18T14:51:01.551Z,15.1
2022-11-18T14:52:18.656Z,14.3
2022-11-18T14:53:35.761Z,16.1
2022-11-18T14:54:52.866Z,17.1
2022-11-18T14:56:09.970Z,18
2022-11-18T14:57:27.075Z,15.7
2022-11-18T14:58:44.180Z,19
2022-11-18T15:00:01.285Z,19.2
2022-11-18T15:01:17.405Z,17.8
2022-11-18T15:02:34.510Z,17.1
2022-11-18T15:03:51.615Z,19.6
2022-11-18T15:05:08.720Z,17.1
2022-11-18T15:06:25.825Z,16.9
2022-11-18T15:07:42.930Z,19.9
2022-11-18T15:09:00.034Z,19.2
2022-11-18T15:10:16.158Z,19.6
2022-11-18T15:11:32.279Z,17.1
2022-11-18T15:12:48.405Z,19.1
2022-11-18T15:14:04.526Z,20.6
2022-11-18T15:15:21.631Z,19.8
2022-11-18T15:16:38.736Z,20
2022-11-18T15:17:55.840Z,17.7
2022-11-18T15:19:12.945Z,20.7
2022-11-18T15:20:30.050Z,20
2022-11-18T15:21:47.155Z,18.9
2022-11-18T15:23:04.259Z,19.9
2022-11-18T15:24:21.364Z,21.6
2022-11-18T15:25:38.469Z,20.2
2022-11-18T15:26:55.574Z,20.7
2022-11-18T15:28:12.678Z,28.3
2022-11-18T15:29:29.784Z,30.5
2022-11-18T15:30:45.904Z,28.1
2022-11-18T15:32:03.009Z,27.2
2022-11-18T15:33:20.114Z,25.8
2022-11-18T15:34:37.218Z,23.6
2022-11-18T15:35:54.323Z,24.9
2022-11-18T15:37:11.428Z,23.4
2022-11-18T15:38:28.532Z,27
2022-11-18T15:39:44.658Z,25.8
2022-11-18T15:41:00.779Z,27.1
2022-11-18T15:42:16.905Z,28.6
2022-11-18T15:43:33.026Z,32.4
2022-11-18T15:44:50.131Z,28.3
2022-11-18T15:46:07.234Z,28.7
2022-11-18T15:47:24.339Z,34
2022-11-18T15:48:41.443Z,37.9
2022-11-18T15:49:58.548Z,37.1
2022-11-18T15:51:15.653Z,33.4
2022-11-18T15:52:32.757Z,36.8
2022-11-18T15:53:49.862Z,35.7
2022-11-18T15:55:06.967Z,33.3
2022-11-18T15:56:24.072Z,34.5
2022-11-18T15:57:41.176Z,35.1
2022-11-18T15:58:58.281Z,34.3
2022-11-18T16:00:14.402Z,35.3
2022-11-18T16:01:31.507Z,36.4
2022-11-18T16:02:48.611Z,36.5
2022-11-18T16:04:05.716Z,29.8
2022-11-18T16:05:22.821Z,31.9
2022-11-18T16:06:39.926Z,41.8
2022-11-18T16:07:57.031Z,30
2022-11-18T16:09:14.136Z,31.7
2022-11-18T16:10:31.240Z,30.2
2022-11-18T16:11:48.345Z,31.1
2022-11-18T16:13:05.450Z,30.6
2022-11-18T16:14:22.555Z,33.2
2022-11-18T16:15:39.659Z,32.4
2022-11-18T16:16:55.780Z,33.5
2022-11-18T16:18:12.885Z,37.4
2022-11-18T16:19:29.990Z,41.6
2022-11-18T16:20:47.094Z,37
2022-11-18T16:22:04.199Z,46.1
2022-11-18T16:23:21.304Z,44.8
2022-11-18T16:24:37.430Z,45.3
2022-11-18T16:25:53.551Z,47
2022-11-18T16:27:10.656Z,42.6
2022-11-18T16:28:26.782Z,39.3
2022-11-18T16:29:42.903Z,45.6
2022-11-18T16:31:00.007Z,41.3
2022-11-18T16:32:17.112Z,46.7
2022-11-18T16:33:34.217Z,45.3
2022-11-18T16:34:51.322Z,47.3
2022-11-18T16:36:08.427Z,45.7
2022-11-18T16:37:25.531Z,43.7
2022-11-18T16:38:42.636Z,46
2022-11-18T16:39:59.741Z,51.5
2022-11-18T16:41:16.846Z,46.7
2022-11-18T16:42:33.950Z,42.8
2022-11-18T16:43:51.055Z,34
2022-11-18T16:45:08.160Z,45.6
2022-11-18T16:46:24.281Z,41.3
2022-11-18T16:47:41.386Z,49.8
2022-11-18T16:48:58.490Z,53
2022-11-18T16:50:15.595Z,51.3
2022-11-18T16:51:32.700Z,62.8
2022-11-18T16:52:49.805Z,73.6
2022-11-18T16:54:05.926Z,70.5
2022-11-18T16:55:22.052Z,56.2
2022-11-18T16:56:38.173Z,82.3
2022-11-18T16:57:55.277Z,66.5
2022-11-18T16:59:11.403Z,66
2022-11-18T17:00:28.508Z,77.3
2022-11-18T17:01:44.629Z,76.1
2022-11-18T17:03:01.734Z,87
2022-11-18T17:04:18.839Z,82.7
2022-11-18T17:05:35.944Z,107.8
2022-11-18T17:06:53.049Z,73.7
2022-11-18T17:08:10.154Z,60.3
2022-11-18T17:09:27.259Z,65.6
2022-11-18T17:10:44.363Z,64
2022-11-18T17:12:01.468Z,63.2